Greendale, Missouri
Current Conditions -  °F | °C
As of 8:51 PM on Monday 20 Oct 2014 (Local Time) from KSTL Reporting Station
Clear Clear  
Wind Chill: 60°   Ceiling: Unl
Heat Index: 60°   Visibility: 10mi
Dew Point: 44°   Wind: 5mph
Humidity: 55%   Direction: 320°NW
Pressure: 30.02"   Gusts: NA
Location:  38.6807°N, 90.3068°W
Report Text: KSTL 210151Z 32004KT 10SM CLR 16/07 A3002 RMK AO2 SLP160 T01560067
Loading
Personal Weather Stations






























Interactive Weather Map
Tropical Storm Tracking
New forecast layout! Learn more

10-Day Weather Forecast

Advertisements
Track Severe Weather on mobile